createdAt,value
2018-06-24T00:02:16.517Z,98724.33
2018-06-24T00:04:45.201Z,98726.81
2018-06-24T00:07:13.737Z,98718.97
2018-06-24T00:09:42.383Z,98719.83
2018-06-24T00:12:11.135Z,98716.53
2018-06-24T00:14:39.784Z,98712.81
2018-06-24T00:17:08.532Z,98709.94
2018-06-24T00:19:38.012Z,98707.84
2018-06-24T00:22:06.677Z,98706.25
2018-06-24T00:24:35.416Z,98706.55
2018-06-24T00:27:04.607Z,98704.42
2018-06-24T00:29:33.883Z,98700.00
2018-06-24T00:32:03.135Z,98694.76
2018-06-24T00:34:31.636Z,98699.11
2018-06-24T00:37:00.174Z,98697.96
2018-06-24T00:39:28.886Z,98697.99
2018-06-24T00:41:57.856Z,98692.63
2018-06-24T00:44:26.710Z,98687.58
2018-06-24T00:46:55.398Z,98693.83
2018-06-24T00:49:24.219Z,98688.03
2018-06-24T00:51:52.931Z,98687.50
2018-06-24T00:54:22.083Z,98680.76
2018-06-24T00:56:50.672Z,98685.82
2018-06-24T00:59:30.539Z,98684.86
2018-06-24T01:01:59.092Z,98678.77
2018-06-24T01:04:28.302Z,98673.52
2018-06-24T01:06:56.958Z,98677.75
2018-06-24T01:09:25.504Z,98676.44
2018-06-24T01:11:54.218Z,98677.18
2018-06-24T01:14:22.796Z,98675.61
2018-06-24T01:16:51.383Z,98676.77
2018-06-24T01:19:20.024Z,98672.97
2018-06-24T01:21:48.786Z,98671.91
2018-06-24T01:24:17.578Z,98665.45
2018-06-24T01:26:46.392Z,98667.66
2018-06-24T01:29:15.032Z,98670.95
2018-06-24T01:31:43.554Z,98671.56
2018-06-24T01:34:12.333Z,98659.95
2018-06-24T01:36:40.988Z,98661.91
2018-06-24T01:39:10.048Z,98656.53
2018-06-24T01:41:38.652Z,98659.87
2018-06-24T01:44:07.542Z,98659.66
2018-06-24T01:46:36.179Z,98656.45
2018-06-24T01:49:04.793Z,98655.33
2018-06-24T01:51:33.612Z,98644.28
2018-06-24T01:54:02.329Z,98646.38
2018-06-24T01:56:30.962Z,98646.05
2018-06-24T01:58:59.509Z,98647.73
2018-06-24T02:01:28.256Z,98641.25
2018-06-24T02:03:56.979Z,98636.89
2018-06-24T02:06:26.879Z,98637.36
2018-06-24T02:08:55.483Z,98639.16
2018-06-24T02:11:24.628Z,98636.42
2018-06-24T02:13:53.232Z,98640.69
2018-06-24T02:16:21.977Z,98636.26
2018-06-24T02:18:51.202Z,98635.10
2018-06-24T02:21:19.907Z,98635.05
2018-06-24T02:23:48.469Z,98630.19
2018-06-24T02:26:17.189Z,98624.72
2018-06-24T02:28:45.775Z,98627.40
2018-06-24T02:31:14.409Z,98623.05
2018-06-24T02:33:42.934Z,98630.33
2018-06-24T02:36:11.564Z,98622.63
2018-06-24T02:38:40.179Z,98627.04
2018-06-24T02:41:08.949Z,98621.73
2018-06-24T02:43:37.706Z,98615.13
2018-06-24T02:46:06.472Z,98611.42
2018-06-24T02:48:35.052Z,98613.09
2018-06-24T02:51:03.723Z,98619.13
2018-06-24T02:53:32.695Z,98615.46
2018-06-24T02:56:01.360Z,98613.06
2018-06-24T02:58:30.049Z,98609.57
2018-06-24T03:00:59.075Z,98609.95
2018-06-24T03:03:28.228Z,98614.00
2018-06-24T03:05:58.016Z,98608.86
2018-06-24T03:08:27.385Z,98601.25
2018-06-24T03:10:56.104Z,98598.23
2018-06-24T03:13:24.810Z,98601.53
2018-06-24T03:15:54.145Z,98600.42
2018-06-24T03:18:22.993Z,98596.05
2018-06-24T03:20:51.625Z,98593.42
2018-06-24T03:23:20.265Z,98599.14
2018-06-24T03:25:48.924Z,98597.80
2018-06-24T03:28:17.813Z,98598.86
2018-06-24T03:30:46.482Z,98598.61
2018-06-24T03:33:15.259Z,98602.08
2018-06-24T03:35:44.050Z,98602.56
2018-06-24T03:38:13.245Z,98605.46
2018-06-24T03:40:41.958Z,98594.85
2018-06-24T03:43:10.586Z,98599.91
2018-06-24T03:45:39.255Z,98606.60
2018-06-24T03:48:07.788Z,98607.86
2018-06-24T03:50:36.399Z,98605.41
2018-06-24T03:53:05.468Z,98602.62
2018-06-24T03:55:34.067Z,98602.91
2018-06-24T03:58:02.598Z,98602.62
2018-06-24T04:00:31.598Z,98598.52
2018-06-24T04:03:00.282Z,98603.08
2018-06-24T04:05:29.003Z,98601.94
2018-06-24T04:07:58.243Z,98604.03
2018-06-24T04:10:27.302Z,98596.11
2018-06-24T04:12:56.169Z,98602.28
2018-06-24T04:15:24.934Z,98595.83
2018-06-24T04:17:53.525Z,98594.23
2018-06-24T04:20:22.344Z,98596.34
2018-06-24T04:22:51.013Z,98600.11
2018-06-24T04:25:19.724Z,98600.28
2018-06-24T04:27:48.539Z,98603.66
2018-06-24T04:30:17.117Z,98605.92
2018-06-24T04:32:45.774Z,98604.75
2018-06-24T04:35:14.432Z,98601.47
2018-06-24T04:37:43.252Z,98592.95
2018-06-24T04:40:12.079Z,98602.52
2018-06-24T04:42:41.977Z,98603.97
2018-06-24T04:45:10.674Z,98607.84
2018-06-24T04:47:39.634Z,98603.12
2018-06-24T04:50:09.080Z,98601.67
2018-06-24T04:52:37.666Z,98607.41
2018-06-24T04:55:06.295Z,98604.90
2018-06-24T04:57:34.995Z,98611.41
2018-06-24T05:00:03.700Z,98609.16
2018-06-24T05:02:32.680Z,98608.28
2018-06-24T05:05:01.406Z,98605.72
2018-06-24T05:07:30.398Z,98604.02
2018-06-24T05:09:59.093Z,98610.14
2018-06-24T05:12:27.759Z,98608.00
2018-06-24T05:14:56.395Z,98615.98
2018-06-24T05:17:25.107Z,98613.88
2018-06-24T05:19:53.644Z,98616.28
2018-06-24T05:22:22.388Z,98615.48
2018-06-24T05:24:51.026Z,98613.00
2018-06-24T05:27:19.668Z,98613.08
2018-06-24T05:29:48.314Z,98615.02
2018-06-24T05:32:17.019Z,98616.69
2018-06-24T05:34:45.676Z,98617.49
2018-06-24T05:37:14.424Z,98612.80
2018-06-24T05:39:43.104Z,98612.16
2018-06-24T05:42:11.758Z,98614.95
2018-06-24T05:44:40.438Z,98610.53
2018-06-24T05:47:09.109Z,98612.47
2018-06-24T05:49:37.789Z,98614.44
2018-06-24T05:52:06.484Z,98621.61
2018-06-24T05:54:35.301Z,98611.16
2018-06-24T05:57:03.844Z,98616.20
2018-06-24T05:59:32.406Z,98609.28
2018-06-24T06:02:00.966Z,98608.48
2018-06-24T06:04:30.258Z,98604.02
2018-06-24T06:06:59.330Z,98607.34
2018-06-24T06:09:27.899Z,98607.67
2018-06-24T06:11:56.751Z,98597.87
2018-06-24T06:14:26.180Z,98609.35
2018-06-24T06:16:56.034Z,98602.64
2018-06-24T06:19:25.045Z,98609.52
2018-06-24T06:21:53.837Z,98606.67
2018-06-24T06:24:22.392Z,98611.67
2018-06-24T06:26:51.883Z,98615.74
2018-06-24T06:29:20.655Z,98610.52
2018-06-24T06:31:49.221Z,98616.18
2018-06-24T06:34:17.841Z,98609.02
2018-06-24T06:36:46.753Z,98610.75
2018-06-24T06:39:15.429Z,98606.28
2018-06-24T06:41:44.051Z,98603.21
2018-06-24T06:44:12.939Z,98611.21
2018-06-24T06:46:41.729Z,98607.16
2018-06-24T06:49:10.573Z,98607.04
2018-06-24T06:51:39.282Z,98609.62
2018-06-24T06:54:08.071Z,98606.52
2018-06-24T06:56:36.942Z,98602.61
2018-06-24T06:59:06.339Z,98601.96
2018-06-24T07:01:34.949Z,98600.83
2018-06-24T07:04:03.639Z,98604.84
2018-06-24T07:06:32.411Z,98602.34
2018-06-24T07:09:01.859Z,98598.71
2018-06-24T07:11:30.646Z,98593.59
2018-06-24T07:13:59.410Z,98595.70
2018-06-24T07:16:28.146Z,98592.38
2018-06-24T07:18:57.081Z,98601.58
2018-06-24T07:21:25.766Z,98598.77
2018-06-24T07:23:54.401Z,98593.48
2018-06-24T07:26:23.265Z,98593.34
2018-06-24T07:28:51.914Z,98592.38
2018-06-24T07:31:20.749Z,98585.57
2018-06-24T07:33:49.452Z,98577.96
2018-06-24T07:36:18.077Z,98585.20
2018-06-24T07:38:46.819Z,98575.45
2018-06-24T07:41:15.474Z,98575.89
2018-06-24T07:43:44.219Z,98580.91
2018-06-24T07:46:12.964Z,98581.34
2018-06-24T07:48:41.726Z,98582.25
2018-06-24T07:51:10.509Z,98578.29
2018-06-24T07:53:39.889Z,98582.73
2018-06-24T07:56:09.531Z,98589.65
2018-06-24T07:58:38.412Z,98571.66
2018-06-24T08:01:07.121Z,98576.66
2018-06-24T08:03:36.686Z,98570.13
2018-06-24T08:06:05.708Z,98571.98
2018-06-24T08:08:34.694Z,98573.39
2018-06-24T08:11:03.617Z,98567.63
2018-06-24T08:13:32.211Z,98575.45
2018-06-24T08:16:01.150Z,98572.12
2018-06-24T08:18:29.949Z,98576.27
2018-06-24T08:20:59.445Z,98573.91
2018-06-24T08:23:28.346Z,98576.77
2018-06-24T08:25:57.055Z,98566.93
2018-06-24T08:28:26.119Z,98576.68
2018-06-24T08:30:55.450Z,98569.64
2018-06-24T08:33:24.866Z,98565.98
2018-06-24T08:35:53.785Z,98556.12
2018-06-24T08:38:23.256Z,98556.12
2018-06-24T08:40:52.104Z,98558.33
2018-06-24T08:43:20.889Z,98560.11
2018-06-24T08:45:49.854Z,98559.91
2018-06-24T08:48:19.079Z,98555.64
2018-06-24T08:50:48.455Z,98553.75
2018-06-24T08:53:17.485Z,98560.56
2018-06-24T08:55:46.141Z,98565.05
2018-06-24T08:58:14.961Z,98559.97
2018-06-24T09:00:43.953Z,98563.14
2018-06-24T09:03:12.695Z,98567.77
2018-06-24T09:05:41.747Z,98560.91
2018-06-24T09:08:10.558Z,98564.61
2018-06-24T09:10:39.320Z,98575.03
2018-06-24T09:13:08.144Z,98575.06
2018-06-24T09:15:38.003Z,98575.94
2018-06-24T09:18:07.427Z,98573.77
2018-06-24T09:20:36.085Z,98579.80
2018-06-24T09:23:05.157Z,98577.06
2018-06-24T09:25:34.680Z,98577.28
2018-06-24T09:28:03.515Z,98575.84
2018-06-24T09:30:32.225Z,98575.52
2018-06-24T09:33:01.366Z,98578.19
2018-06-24T09:35:30.141Z,98572.60
2018-06-24T09:37:58.812Z,98571.56
2018-06-24T09:40:27.880Z,98571.38
2018-06-24T09:42:56.721Z,98568.16
2018-06-24T09:45:26.432Z,98567.66
2018-06-24T09:47:55.425Z,98568.81
2018-06-24T09:50:25.026Z,98568.98
2018-06-24T09:52:55.231Z,98564.07
2018-06-24T09:55:24.131Z,98559.17
2018-06-24T09:57:53.263Z,98555.68
2018-06-24T10:00:22.745Z,98548.41
2018-06-24T10:02:52.854Z,98547.70
2018-06-24T10:05:22.356Z,98548.56
2018-06-24T10:07:51.283Z,98551.42
2018-06-24T10:10:20.491Z,98543.86
2018-06-24T10:12:49.346Z,98538.77
2018-06-24T10:15:18.261Z,98542.09
2018-06-24T10:17:47.247Z,98537.44
2018-06-24T10:20:16.192Z,98540.73
2018-06-24T10:22:45.747Z,98538.47
2018-06-24T10:25:14.483Z,98542.97
2018-06-24T10:27:44.082Z,98535.70
2018-06-24T10:30:14.114Z,98520.92
2018-06-24T10:32:42.916Z,98519.70
2018-06-24T10:35:11.620Z,98521.85
2018-06-24T10:37:40.310Z,98525.97
2018-06-24T10:40:09.308Z,98524.28
2018-06-24T10:42:38.041Z,98524.25
2018-06-24T10:45:07.737Z,98516.98
2018-06-24T10:47:37.163Z,98515.37
2018-06-24T10:50:06.451Z,98510.25
2018-06-24T10:52:35.283Z,98513.79
2018-06-24T10:55:04.172Z,98506.63
2018-06-24T10:57:32.867Z,98512.38
2018-06-24T11:00:01.719Z,98502.84
2018-06-24T11:02:30.411Z,98507.63
2018-06-24T11:04:59.737Z,98504.04
2018-06-24T11:07:28.557Z,98509.42
2018-06-24T11:09:58.143Z,98510.24
2018-06-24T11:12:27.197Z,98500.33
2018-06-24T11:14:55.870Z,98507.58
2018-06-24T11:17:24.455Z,98502.89
2018-06-24T11:19:53.297Z,98502.78
2018-06-24T11:22:22.132Z,98502.20
2018-06-24T11:24:50.975Z,98503.80
2018-06-24T11:27:19.750Z,98504.16
2018-06-24T11:29:48.777Z,98503.61
2018-06-24T11:32:17.987Z,98497.70
2018-06-24T11:34:46.836Z,98504.28
2018-06-24T11:37:15.588Z,98503.09
2018-06-24T11:39:44.327Z,98504.87
2018-06-24T11:42:13.011Z,98504.50
2018-06-24T11:44:41.786Z,98506.66
2018-06-24T11:47:10.686Z,98504.69
2018-06-24T11:49:39.556Z,98510.44
2018-06-24T11:52:08.435Z,98501.67
2018-06-24T11:54:37.377Z,98503.88
2018-06-24T11:57:06.377Z,98502.02
2018-06-24T11:59:35.645Z,98506.23
2018-06-24T12:02:04.776Z,98500.64
2018-06-24T12:04:33.538Z,98499.44
2018-06-24T12:07:02.486Z,98501.83
2018-06-24T12:09:31.375Z,98497.90
2018-06-24T12:12:00.128Z,98500.69
2018-06-24T12:14:28.809Z,98489.17
2018-06-24T12:16:57.553Z,98489.39
2018-06-24T12:19:26.224Z,98495.17
2018-06-24T12:21:55.835Z,98490.97
2018-06-24T12:24:24.725Z,98492.47
2018-06-24T12:26:53.696Z,98494.55
2018-06-24T12:29:22.697Z,98492.28
2018-06-24T12:31:51.569Z,98490.89
2018-06-24T12:34:20.262Z,98484.67
2018-06-24T12:36:49.080Z,98491.78
2018-06-24T12:39:19.173Z,98493.03
2018-06-24T12:41:48.023Z,98491.47
2018-06-24T12:44:16.719Z,98487.98
2018-06-24T12:46:45.447Z,98491.99
2018-06-24T12:49:14.272Z,98492.60
2018-06-24T12:51:43.253Z,98489.42
2018-06-24T12:54:12.346Z,98494.45
2018-06-24T12:56:41.839Z,98490.69
2018-06-24T12:59:10.793Z,98490.50
2018-06-24T13:01:39.427Z,98487.13
2018-06-24T13:04:08.387Z,98486.58
2018-06-24T13:06:37.297Z,98481.81
2018-06-24T13:09:08.856Z,98480.98
2018-06-24T13:11:37.756Z,98480.27
2018-06-24T13:14:06.659Z,98476.86
2018-06-24T13:16:35.512Z,98477.23
2018-06-24T13:19:04.472Z,98470.19
2018-06-24T13:21:33.231Z,98467.06
2018-06-24T13:24:02.302Z,98468.09
2018-06-24T13:26:31.110Z,98471.00
2018-06-24T13:29:00.791Z,98454.63
2018-06-24T13:31:29.958Z,98451.30
2018-06-24T13:33:59.000Z,98453.28
2018-06-24T13:36:28.978Z,98448.64
2018-06-24T13:38:58.366Z,98450.98
2018-06-24T13:41:27.937Z,98451.86
2018-06-24T13:43:57.047Z,98451.10
2018-06-24T13:46:26.031Z,98445.59
2018-06-24T13:48:54.878Z,98450.36
2018-06-24T13:51:23.964Z,98438.83
2018-06-24T13:53:52.943Z,98436.86
2018-06-24T13:56:21.842Z,98443.19
2018-06-24T13:58:50.453Z,98443.57
2018-06-24T14:01:19.479Z,98452.77
2018-06-24T14:03:48.229Z,98446.29
2018-06-24T14:06:17.208Z,98445.96
2018-06-24T14:08:46.037Z,98442.61
2018-06-24T14:11:14.724Z,98442.45
2018-06-24T14:13:43.357Z,98443.77
2018-06-24T14:16:12.957Z,98435.84
2018-06-24T14:18:42.332Z,98438.02
2018-06-24T14:21:11.358Z,98437.44
2018-06-24T14:23:40.318Z,98440.69
2018-06-24T14:26:08.968Z,98441.15
2018-06-24T14:28:37.544Z,98437.47
2018-06-24T14:31:06.501Z,98436.84
2018-06-24T14:33:36.404Z,98436.77
2018-06-24T14:36:05.688Z,98428.96
2018-06-24T14:38:35.039Z,98434.56
2018-06-24T14:41:03.939Z,98429.09
2018-06-24T14:43:32.613Z,98427.75
2018-06-24T14:46:01.984Z,98433.47
2018-06-24T14:48:31.096Z,98426.19
2018-06-24T14:51:00.111Z,98423.53
2018-06-24T14:53:28.716Z,98418.48
2018-06-24T14:55:57.662Z,98413.81
2018-06-24T14:58:26.859Z,98409.47
2018-06-24T15:00:55.873Z,98412.95
2018-06-24T15:03:24.961Z,98411.42
2018-06-24T15:05:53.897Z,98416.67
2018-06-24T15:08:22.736Z,98414.03
2018-06-24T15:10:51.969Z,98409.41
2018-06-24T15:13:21.136Z,98413.20
2018-06-24T15:15:50.011Z,98408.41
2018-06-24T15:18:18.948Z,98411.62
2018-06-24T15:20:47.702Z,98410.59
2018-06-24T15:23:16.857Z,98399.98
2018-06-24T15:25:46.368Z,98399.48
2018-06-24T15:28:16.093Z,98400.97
2018-06-24T15:30:46.347Z,98407.13
2018-06-24T15:33:15.881Z,98403.39
2018-06-24T15:35:45.158Z,98408.23
2018-06-24T15:38:14.588Z,98399.54
2018-06-24T15:40:43.674Z,98399.95
2018-06-24T15:43:12.961Z,98400.63
2018-06-24T15:45:42.179Z,98393.18
2018-06-24T15:48:12.238Z,98395.72
2018-06-24T15:50:41.455Z,98393.11
2018-06-24T15:53:10.458Z,98395.36
2018-06-24T15:55:40.323Z,98397.73
2018-06-24T15:58:10.228Z,98390.80
2018-06-24T16:00:40.191Z,98380.12
2018-06-24T16:03:09.449Z,98381.89
2018-06-24T16:05:38.172Z,98387.70
2018-06-24T16:08:07.234Z,98382.19
2018-06-24T16:10:36.547Z,98383.86
2018-06-24T16:13:05.984Z,98372.47
2018-06-24T16:15:34.904Z,98377.58
2018-06-24T16:18:03.790Z,98372.72
2018-06-24T16:20:33.363Z,98375.83
2018-06-24T16:23:02.109Z,98375.34
2018-06-24T16:25:31.384Z,98379.64
2018-06-24T16:28:00.363Z,98393.61
2018-06-24T16:30:31.206Z,98382.72
2018-06-24T16:33:00.203Z,98378.81
2018-06-24T16:35:29.218Z,98380.47
2018-06-24T16:37:58.232Z,98375.42
2018-06-24T16:40:27.153Z,98379.92
2018-06-24T16:42:56.074Z,98373.03
2018-06-24T16:45:25.222Z,98372.27
2018-06-24T16:47:54.323Z,98367.64
2018-06-24T16:50:23.584Z,98372.00
2018-06-24T16:52:53.113Z,98372.18
2018-06-24T16:55:23.118Z,98365.21
2018-06-24T16:57:52.005Z,98369.75
2018-06-24T17:00:20.902Z,98368.05
2018-06-24T17:02:49.668Z,98361.41
2018-06-24T17:05:19.142Z,98367.12
2018-06-24T17:07:47.813Z,98366.20
2018-06-24T17:10:16.613Z,98368.28
2018-06-24T17:12:45.692Z,98364.48
2018-06-24T17:18:45.856Z,98368.41
2018-06-24T17:21:15.083Z,98370.74
2018-06-24T17:23:46.933Z,98365.00
2018-06-24T17:26:16.339Z,98371.69
2018-06-24T17:28:45.425Z,98368.59
2018-06-24T17:31:14.174Z,98377.14
2018-06-24T17:33:42.909Z,98376.77
2018-06-24T17:36:11.640Z,98373.89
2018-06-24T17:38:40.399Z,98372.43
2018-06-24T17:41:09.864Z,98370.06
2018-06-24T17:43:38.867Z,98370.45
2018-06-24T17:46:08.247Z,98368.26
2018-06-24T17:48:36.959Z,98368.30
2018-06-24T17:51:05.719Z,98364.43
2018-06-24T17:53:34.499Z,98359.04
2018-06-24T17:56:04.103Z,98363.48
2018-06-24T17:58:32.838Z,98363.73
2018-06-24T18:01:01.818Z,98365.50
2018-06-24T18:03:30.699Z,98369.06
2018-06-24T18:05:59.673Z,98359.58
2018-06-24T18:08:28.304Z,98361.20
2018-06-24T18:10:57.012Z,98360.31
2018-06-24T18:13:25.845Z,98361.41
2018-06-24T18:15:55.684Z,98354.05
2018-06-24T18:18:25.188Z,98360.41
2018-06-24T18:20:53.943Z,98359.12
2018-06-24T18:23:22.598Z,98372.08
2018-06-24T18:25:51.319Z,98363.44
2018-06-24T18:28:20.207Z,98361.50
2018-06-24T18:30:49.444Z,98363.34
2018-06-24T18:33:18.428Z,98363.61
2018-06-24T18:35:48.750Z,98357.50
2018-06-24T18:38:18.494Z,98359.25
2018-06-24T18:40:47.452Z,98368.50
2018-06-24T18:43:16.085Z,98364.62
2018-06-24T18:45:44.865Z,98368.77
2018-06-24T18:48:13.664Z,98361.91
2018-06-24T18:50:42.367Z,98370.36
2018-06-24T18:53:11.603Z,98375.84
2018-06-24T18:55:40.415Z,98368.09
2018-06-24T18:58:09.355Z,98363.73
2018-06-24T19:00:38.164Z,98368.98
2018-06-24T19:03:06.985Z,98372.05
2018-06-24T19:05:35.715Z,98372.84
2018-06-24T19:08:04.713Z,98375.35
2018-06-24T19:10:33.729Z,98368.86
2018-06-24T19:13:02.615Z,98370.45
2018-06-24T19:15:31.718Z,98370.34
2018-06-24T19:18:00.718Z,98370.09
2018-06-24T19:20:29.519Z,98364.27
2018-06-24T19:22:58.435Z,98366.87
2018-06-24T19:25:27.191Z,98360.62
2018-06-24T19:27:56.655Z,98365.49
2018-06-24T19:30:25.948Z,98368.02
2018-06-24T19:32:55.109Z,98368.69
2018-06-24T19:35:24.080Z,98370.72
2018-06-24T19:37:53.143Z,98373.03
2018-06-24T19:40:21.780Z,98381.11
2018-06-24T19:42:50.568Z,98382.61
2018-06-24T19:45:19.395Z,98383.38
2018-06-24T19:47:48.298Z,98385.98
2018-06-24T19:50:17.680Z,98380.02
2018-06-24T19:52:47.528Z,98384.86
2018-06-24T19:55:16.410Z,98389.73
2018-06-24T19:57:45.474Z,98393.61
2018-06-24T20:00:14.486Z,98388.56
2018-06-24T20:02:43.791Z,98394.70
2018-06-24T20:05:13.081Z,98395.35
2018-06-24T20:07:42.223Z,98404.65
2018-06-24T20:10:10.996Z,98405.45
2018-06-24T20:12:39.593Z,98403.72
2018-06-24T20:15:09.025Z,98403.25
2018-06-24T20:17:38.212Z,98399.03
2018-06-24T20:20:08.406Z,98411.33
2018-06-24T20:22:37.391Z,98409.38
2018-06-24T20:25:06.498Z,98402.52
2018-06-24T20:27:36.025Z,98402.70
2018-06-24T20:30:05.597Z,98412.58
2018-06-24T20:32:34.599Z,98412.02
2018-06-24T20:35:03.632Z,98408.75
2018-06-24T20:37:32.345Z,98409.62
2018-06-24T20:40:01.276Z,98401.64
2018-06-24T20:42:30.161Z,98406.64
2018-06-24T20:44:59.076Z,98405.70
2018-06-24T20:47:27.697Z,98407.32
2018-06-24T20:49:56.484Z,98406.38
2018-06-24T20:52:25.174Z,98407.21
2018-06-24T20:54:54.096Z,98407.95
2018-06-24T20:57:23.630Z,98409.88
2018-06-24T20:59:52.509Z,98404.88
2018-06-24T21:02:21.343Z,98413.82
2018-06-24T21:04:50.039Z,98415.19
2018-06-24T21:07:18.859Z,98414.03
2018-06-24T21:09:47.384Z,98416.70
2018-06-24T21:12:16.244Z,98416.36
2018-06-24T21:14:44.888Z,98425.70
2018-06-24T21:17:15.476Z,98420.80
2018-06-24T21:19:44.513Z,98420.50
2018-06-24T21:22:13.769Z,98416.41
2018-06-24T21:24:43.090Z,98418.02
2018-06-24T21:27:12.376Z,98411.53
2018-06-24T21:29:41.893Z,98416.09
2018-06-24T21:32:10.796Z,98417.55
2018-06-24T21:34:39.679Z,98412.98
2018-06-24T21:37:08.496Z,98415.37
2018-06-24T21:39:37.390Z,98412.73
2018-06-24T21:42:06.857Z,98413.41
2018-06-24T21:44:35.834Z,98416.36
2018-06-24T21:47:04.554Z,98414.57
2018-06-24T21:49:33.322Z,98414.35
2018-06-24T21:52:02.255Z,98414.35
2018-06-24T21:54:30.803Z,98416.41
2018-06-24T21:56:59.674Z,98413.20
2018-06-24T21:59:28.365Z,98415.37
2018-06-24T22:01:57.441Z,98414.86
2018-06-24T22:04:26.809Z,98415.99
2018-06-24T22:06:55.618Z,98409.52
2018-06-24T22:09:25.111Z,98407.32
2018-06-24T22:11:54.061Z,98410.89
2018-06-24T22:14:22.675Z,98414.94
2018-06-24T22:16:52.004Z,98416.12
2018-06-24T22:19:20.724Z,98416.58
2018-06-24T22:21:50.470Z,98421.61
2018-06-24T22:24:20.853Z,98421.52
2018-06-24T22:26:49.720Z,98425.28
2018-06-24T22:29:18.709Z,98428.72
2018-06-24T22:31:47.381Z,98426.55
2018-06-24T22:34:16.425Z,98432.58
2018-06-24T22:36:45.895Z,98432.58
2018-06-24T22:39:14.984Z,98430.49
2018-06-24T22:41:44.102Z,98434.59
2018-06-24T22:44:13.344Z,98436.86
2018-06-24T22:46:42.380Z,98447.79
2018-06-24T22:49:11.374Z,98444.84
2018-06-24T22:51:40.104Z,98442.45
2018-06-24T22:54:08.848Z,98440.74
2018-06-24T22:56:37.535Z,98438.66
2018-06-24T22:59:17.306Z,98437.85
2018-06-24T23:01:46.148Z,98445.45
2018-06-24T23:04:14.924Z,98444.89
2018-06-24T23:06:44.874Z,98449.55
2018-06-24T23:09:13.546Z,98451.26
2018-06-24T23:11:42.545Z,98451.81
2018-06-24T23:14:12.995Z,98454.55
2018-06-24T23:16:41.901Z,98457.84
2018-06-24T23:19:11.569Z,98459.30
2018-06-24T23:21:40.480Z,98462.70
2018-06-24T23:24:09.835Z,98460.63
2018-06-24T23:26:38.769Z,98463.61
2018-06-24T23:29:08.025Z,98468.81
2018-06-24T23:31:36.752Z,98469.63
2018-06-24T23:34:05.360Z,98465.05
2018-06-24T23:36:33.904Z,98470.18
2018-06-24T23:39:02.587Z,98465.83
2018-06-24T23:41:31.275Z,98466.17
2018-06-24T23:44:00.012Z,98460.58
2018-06-24T23:46:28.724Z,98461.48
2018-06-24T23:48:57.540Z,98461.01
2018-06-24T23:51:26.179Z,98470.73
2018-06-24T23:53:55.441Z,98465.03
2018-06-24T23:56:24.289Z,98459.91
2018-06-24T23:58:53.068Z,98461.11
